createdAt,value
2019-03-24T00:02:23.131Z,99.90
2019-03-24T00:04:53.533Z,99.90
2019-03-24T00:07:24.296Z,99.90
2019-03-24T00:09:54.619Z,99.90
2019-03-24T00:12:24.983Z,99.90
2019-03-24T00:14:55.261Z,99.90
2019-03-24T00:17:25.717Z,99.90
2019-03-24T00:19:56.050Z,99.90
2019-03-24T00:22:26.341Z,99.90
2019-03-24T00:24:56.650Z,99.90
2019-03-24T00:27:28.208Z,99.90
2019-03-24T00:29:58.631Z,99.90
2019-03-24T00:32:29.220Z,99.90
2019-03-24T00:34:59.584Z,99.90
2019-03-24T00:37:29.913Z,99.90
2019-03-24T00:40:00.384Z,99.90
2019-03-24T00:42:30.806Z,99.90
2019-03-24T00:45:01.357Z,99.90
2019-03-24T00:47:31.894Z,99.90
2019-03-24T00:50:02.341Z,99.90
2019-03-24T00:52:32.813Z,99.90
2019-03-24T00:55:03.364Z,99.90
2019-03-24T00:57:33.935Z,99.90
2019-03-24T01:00:08.709Z,99.90
2019-03-24T01:02:39.201Z,99.90
2019-03-24T01:05:09.960Z,99.90
2019-03-24T01:07:40.328Z,99.90
2019-03-24T01:10:10.781Z,99.90
2019-03-24T01:12:41.036Z,99.90
2019-03-24T01:15:11.597Z,99.90
2019-03-24T01:17:42.178Z,99.90
2019-03-24T01:20:12.670Z,99.90
2019-03-24T01:22:43.045Z,99.90
2019-03-24T01:25:13.517Z,99.90
2019-03-24T01:27:43.818Z,99.90
2019-03-24T01:30:14.561Z,99.90
2019-03-24T01:32:45.288Z,99.90
2019-03-24T01:35:15.793Z,99.90
2019-03-24T01:37:46.164Z,99.90
2019-03-24T01:40:16.576Z,99.90
2019-03-24T01:42:46.937Z,99.90
2019-03-24T01:45:17.725Z,99.90
2019-03-24T01:47:47.996Z,99.90
2019-03-24T01:50:18.349Z,99.90
2019-03-24T01:52:48.722Z,99.90
2019-03-24T01:55:19.039Z,99.90
2019-03-24T01:57:49.461Z,99.90
2019-03-24T02:00:19.976Z,99.90
2019-03-24T02:02:50.830Z,99.90
2019-03-24T02:05:21.217Z,99.90
2019-03-24T02:07:51.557Z,99.90
2019-03-24T02:10:21.913Z,99.90
2019-03-24T02:12:52.484Z,99.90
2019-03-24T02:15:23.027Z,99.90
2019-03-24T02:17:53.494Z,99.90
2019-03-24T02:20:24.323Z,99.90
2019-03-24T02:22:54.784Z,99.90
2019-03-24T02:25:25.296Z,99.90
2019-03-24T02:27:56.102Z,99.90
2019-03-24T02:30:28.379Z,99.90
2019-03-24T02:32:58.693Z,99.90
2019-03-24T02:35:29.254Z,99.90
2019-03-24T02:37:59.526Z,99.90
2019-03-24T02:40:29.819Z,99.90
2019-03-24T02:43:00.167Z,99.90
2019-03-24T02:45:31.485Z,99.90
2019-03-24T02:48:01.872Z,99.90
2019-03-24T02:50:32.126Z,99.90
2019-03-24T02:53:02.421Z,99.90
2019-03-24T02:55:32.756Z,99.90
2019-03-24T02:58:03.092Z,99.90
2019-03-24T03:00:33.433Z,99.90
2019-03-24T03:03:03.869Z,99.90
2019-03-24T03:05:34.144Z,99.90
2019-03-24T03:08:04.572Z,99.90
2019-03-24T03:10:35.213Z,99.90
2019-03-24T03:13:05.548Z,99.90
2019-03-24T03:15:36.183Z,99.90
2019-03-24T03:18:06.623Z,99.90
2019-03-24T03:20:37.223Z,99.90
2019-03-24T03:23:07.677Z,99.90
2019-03-24T03:25:37.978Z,99.90
2019-03-24T03:28:08.355Z,99.90
2019-03-24T03:30:38.638Z,99.90
2019-03-24T03:33:09.057Z,99.90
2019-03-24T03:35:39.593Z,99.90
2019-03-24T03:38:09.874Z,99.90
2019-03-24T03:40:40.335Z,99.90
2019-03-24T03:43:10.619Z,99.90
2019-03-24T03:45:41.054Z,99.90
2019-03-24T03:48:11.328Z,99.90
2019-03-24T03:50:41.663Z,99.90
2019-03-24T03:53:11.997Z,99.90
2019-03-24T03:55:42.332Z,99.90
2019-03-24T03:58:12.646Z,99.90
2019-03-24T04:00:42.909Z,99.90
2019-03-24T04:03:13.366Z,99.90
2019-03-24T04:05:43.623Z,99.90
2019-03-24T04:08:14.001Z,99.90
2019-03-24T04:10:44.271Z,99.90
2019-03-24T04:13:14.682Z,99.90
2019-03-24T04:15:45.043Z,99.90
2019-03-24T04:18:16.284Z,99.90
2019-03-24T04:20:46.622Z,99.90
2019-03-24T04:23:16.906Z,99.90
2019-03-24T04:25:47.164Z,99.90
2019-03-24T04:28:17.449Z,99.90
2019-03-24T04:30:47.744Z,99.90
2019-03-24T04:33:18.153Z,99.90
2019-03-24T04:35:48.423Z,99.90
2019-03-24T04:38:18.701Z,99.90
2019-03-24T04:40:49.005Z,99.90
2019-03-24T04:43:19.343Z,99.90
2019-03-24T04:45:49.747Z,99.90
2019-03-24T04:48:20.122Z,99.90
2019-03-24T04:50:50.523Z,99.90
2019-03-24T04:53:20.988Z,99.90
2019-03-24T04:55:51.284Z,99.90
2019-03-24T04:58:22.596Z,99.90
2019-03-24T05:00:52.898Z,99.90
2019-03-24T05:03:23.182Z,99.90
2019-03-24T05:05:54.491Z,99.90
2019-03-24T05:08:25.307Z,99.90
2019-03-24T05:10:55.576Z,99.90
2019-03-24T05:13:25.952Z,99.90
2019-03-24T05:15:56.300Z,99.90
2019-03-24T05:18:26.602Z,99.90
2019-03-24T05:20:56.867Z,99.90
2019-03-24T05:23:27.166Z,99.90
2019-03-24T05:25:57.457Z,99.90
2019-03-24T05:28:27.792Z,99.90
2019-03-24T05:30:58.056Z,99.90
2019-03-24T05:33:28.378Z,99.90
2019-03-24T05:35:58.661Z,99.90
2019-03-24T05:38:28.940Z,99.90
2019-03-24T05:40:59.460Z,99.90
2019-03-24T05:43:29.731Z,99.90
2019-03-24T05:46:00.240Z,99.90
2019-03-24T05:48:30.857Z,99.90
2019-03-24T05:51:01.124Z,99.90
2019-03-24T05:53:31.406Z,99.90
2019-03-24T05:56:01.681Z,99.90
2019-03-24T05:58:31.964Z,99.90
2019-03-24T06:01:02.305Z,99.90
2019-03-24T06:03:32.571Z,99.90
2019-03-24T06:06:03.001Z,99.90
2019-03-24T06:08:33.321Z,99.90
2019-03-24T06:11:03.660Z,99.90
2019-03-24T06:13:33.928Z,99.90
2019-03-24T06:16:04.374Z,99.90
2019-03-24T06:18:34.693Z,99.90
2019-03-24T06:21:05.134Z,99.90
2019-03-24T06:23:35.449Z,99.90
2019-03-24T06:26:06.715Z,99.90
2019-03-24T06:28:37.028Z,99.90
2019-03-24T06:31:07.382Z,99.90
2019-03-24T06:33:37.715Z,99.90
2019-03-24T06:36:07.976Z,99.90
2019-03-24T06:38:38.294Z,99.90
2019-03-24T06:41:08.640Z,99.90
2019-03-24T06:43:38.940Z,99.90
2019-03-24T06:46:09.260Z,99.90
2019-03-24T06:48:40.004Z,99.90
2019-03-24T06:51:10.408Z,99.90
2019-03-24T06:53:40.783Z,99.90
2019-03-24T06:56:11.208Z,99.90
2019-03-24T06:58:41.584Z,99.90
2019-03-24T07:01:12.012Z,99.90
2019-03-24T07:03:42.397Z,99.90
2019-03-24T07:06:12.908Z,99.90
2019-03-24T07:08:43.380Z,99.90
2019-03-24T07:11:14.122Z,99.90
2019-03-24T07:13:44.875Z,99.90
2019-03-24T07:16:15.392Z,98.70
2019-03-24T07:18:45.821Z,97.90
2019-03-24T07:21:16.453Z,97.00
2019-03-24T07:23:47.040Z,98.40
2019-03-24T07:26:17.500Z,97.70
2019-03-24T07:28:47.916Z,96.00
2019-03-24T07:31:18.399Z,94.60
2019-03-24T07:33:48.759Z,92.00
2019-03-24T07:36:19.383Z,90.90
2019-03-24T07:38:50.316Z,89.10
2019-03-24T07:41:20.777Z,88.30
2019-03-24T07:43:51.459Z,90.00
2019-03-24T07:46:21.893Z,91.60
2019-03-24T07:48:52.471Z,89.40
2019-03-24T07:51:22.899Z,88.50
2019-03-24T07:53:53.324Z,84.10
2019-03-24T07:56:23.819Z,78.70
2019-03-24T07:58:54.454Z,79.70
2019-03-24T08:01:25.088Z,83.10
2019-03-24T08:03:55.580Z,80.60
2019-03-24T08:06:25.946Z,81.20
2019-03-24T08:08:57.579Z,81.60
2019-03-24T08:11:30.164Z,75.00
2019-03-24T08:14:00.531Z,80.70
2019-03-24T08:16:30.915Z,82.00
2019-03-24T08:19:01.318Z,80.50
2019-03-24T08:21:31.744Z,74.70
2019-03-24T08:24:02.159Z,70.30
2019-03-24T08:26:32.614Z,74.00
2019-03-24T08:29:03.433Z,77.00
2019-03-24T08:31:33.869Z,71.00
2019-03-24T08:34:04.287Z,70.20
2019-03-24T08:36:34.892Z,68.90
2019-03-24T08:39:06.656Z,68.60
2019-03-24T08:41:38.770Z,67.10
2019-03-24T08:44:09.313Z,68.40
2019-03-24T08:46:39.584Z,67.60
2019-03-24T08:49:09.927Z,79.60
2019-03-24T08:51:41.179Z,80.10
2019-03-24T08:54:11.461Z,75.60
2019-03-24T08:56:41.736Z,77.50
2019-03-24T08:59:12.014Z,73.00
2019-03-24T09:01:42.405Z,72.20
2019-03-24T09:04:12.755Z,79.10
2019-03-24T09:06:44.176Z,79.20
2019-03-24T09:09:14.582Z,75.30
2019-03-24T09:11:45.372Z,75.70
2019-03-24T09:14:15.732Z,74.20
2019-03-24T09:16:46.518Z,69.50
2019-03-24T09:19:16.856Z,70.30
2019-03-24T09:21:47.292Z,76.00
2019-03-24T09:24:17.920Z,74.80
2019-03-24T09:26:48.345Z,73.40
2019-03-24T09:29:18.772Z,71.60
2019-03-24T09:31:49.205Z,65.80
2019-03-24T09:34:19.967Z,76.40
2019-03-24T09:36:50.568Z,73.00
2019-03-24T09:39:21.320Z,68.80
2019-03-24T09:41:51.643Z,69.20
2019-03-24T09:44:27.013Z,71.30
2019-03-24T09:46:57.434Z,72.40
2019-03-24T09:49:27.781Z,67.10
2019-03-24T09:51:58.427Z,68.80
2019-03-24T09:54:29.067Z,69.80
2019-03-24T09:56:59.687Z,73.90
2019-03-24T09:59:30.200Z,69.60
2019-03-24T10:02:00.673Z,67.90
2019-03-24T10:04:31.244Z,66.30
2019-03-24T10:07:05.032Z,63.30
2019-03-24T10:09:35.755Z,62.50
2019-03-24T10:12:07.518Z,68.70
2019-03-24T10:14:37.876Z,65.10
2019-03-24T10:17:08.235Z,68.20
2019-03-24T10:19:38.509Z,61.90
2019-03-24T10:22:08.918Z,67.50
2019-03-24T10:24:39.716Z,63.20
2019-03-24T10:27:09.999Z,61.40
2019-03-24T10:29:40.377Z,56.30
2019-03-24T10:32:10.741Z,56.00
2019-03-24T10:34:41.639Z,55.30
2019-03-24T10:37:12.031Z,55.60
2019-03-24T10:39:42.372Z,53.60
2019-03-24T10:42:12.744Z,58.30
2019-03-24T10:44:47.134Z,58.60
2019-03-24T10:47:17.788Z,55.70
2019-03-24T10:49:48.093Z,63.40
2019-03-24T10:52:18.494Z,64.00
2019-03-24T10:54:49.347Z,57.70
2019-03-24T10:57:19.837Z,58.40
2019-03-24T10:59:50.525Z,58.70
2019-03-24T11:02:20.899Z,52.80
2019-03-24T11:04:51.420Z,52.80
2019-03-24T11:07:21.904Z,54.50
2019-03-24T11:09:52.200Z,53.00
2019-03-24T11:12:22.866Z,51.60
2019-03-24T11:14:53.409Z,58.00
2019-03-24T11:17:23.695Z,57.40
2019-03-24T11:19:54.052Z,55.40
2019-03-24T11:22:24.442Z,50.00
2019-03-24T11:24:55.161Z,50.00
2019-03-24T11:27:25.546Z,49.30
2019-03-24T11:29:55.896Z,48.10
2019-03-24T11:32:26.352Z,50.80
2019-03-24T11:34:56.697Z,50.30
2019-03-24T11:37:27.311Z,51.70
2019-03-24T11:40:02.174Z,52.40
2019-03-24T11:42:32.823Z,49.70
2019-03-24T11:45:03.525Z,51.10
2019-03-24T11:47:33.961Z,52.00
2019-03-24T11:50:04.750Z,55.80
2019-03-24T11:52:35.282Z,52.80
2019-03-24T11:55:06.644Z,53.20
2019-03-24T11:57:37.244Z,52.10
2019-03-24T12:00:09.026Z,53.00
2019-03-24T12:02:40.698Z,50.50
2019-03-24T12:05:11.340Z,50.90
2019-03-24T12:07:41.856Z,48.00
2019-03-24T12:10:12.504Z,48.60
2019-03-24T12:12:42.999Z,48.70
2019-03-24T12:15:14.490Z,51.30
2019-03-24T12:17:44.862Z,50.10
2019-03-24T12:20:15.736Z,52.60
2019-03-24T12:22:46.051Z,53.10
2019-03-24T12:25:16.918Z,50.90
2019-03-24T12:27:47.349Z,48.50
2019-03-24T12:30:17.835Z,44.80
2019-03-24T12:32:48.184Z,44.80
2019-03-24T12:35:18.606Z,45.70
2019-03-24T12:37:49.132Z,45.60
2019-03-24T12:40:20.560Z,46.60
2019-03-24T12:42:51.040Z,45.60
2019-03-24T12:45:21.512Z,48.40
2019-03-24T12:47:51.900Z,46.50
2019-03-24T12:50:31.042Z,45.20
2019-03-24T12:52:54.352Z,42.30
2019-03-24T12:55:24.796Z,42.70
2019-03-24T12:57:55.172Z,42.70
2019-03-24T13:00:39.710Z,40.80
2019-03-24T13:03:10.578Z,44.40
2019-03-24T13:05:41.487Z,43.50
2019-03-24T13:08:13.241Z,44.10
2019-03-24T13:10:43.894Z,47.90
2019-03-24T13:13:14.301Z,46.20
2019-03-24T13:15:44.788Z,44.90
2019-03-24T13:18:16.179Z,46.00
2019-03-24T13:20:46.645Z,45.80
2019-03-24T13:23:16.993Z,46.50
2019-03-24T13:25:47.316Z,47.10
2019-03-24T13:28:17.835Z,45.30
2019-03-24T13:30:48.439Z,44.90
2019-03-24T13:33:19.258Z,45.70
2019-03-24T13:35:54.682Z,44.60
2019-03-24T13:38:24.953Z,44.50
2019-03-24T13:40:56.564Z,44.60
2019-03-24T13:43:26.833Z,45.40
2019-03-24T13:45:57.560Z,45.10
2019-03-24T13:48:27.989Z,46.90
2019-03-24T13:50:58.348Z,48.20
2019-03-24T13:53:29.000Z,48.90
2019-03-24T13:55:59.571Z,48.30
2019-03-24T13:58:29.919Z,48.20
2019-03-24T14:01:00.279Z,46.00
2019-03-24T14:03:30.839Z,45.50
2019-03-24T14:06:01.201Z,46.70
2019-03-24T14:08:31.637Z,46.30
2019-03-24T14:11:02.256Z,45.20
2019-03-24T14:13:32.832Z,44.30
2019-03-24T14:16:03.269Z,46.20
2019-03-24T14:18:33.642Z,49.40
2019-03-24T14:21:04.120Z,47.40
2019-03-24T14:23:34.564Z,48.00
2019-03-24T14:26:05.077Z,47.00
2019-03-24T14:28:36.897Z,46.50
2019-03-24T14:31:07.271Z,45.90
2019-03-24T14:33:37.692Z,46.00
2019-03-24T14:36:08.060Z,45.80
2019-03-24T14:38:39.034Z,45.90
2019-03-24T14:41:09.498Z,47.30
2019-03-24T14:43:40.752Z,48.30
2019-03-24T14:46:11.596Z,48.00
2019-03-24T14:48:41.876Z,48.80
2019-03-24T14:51:12.549Z,48.80
2019-03-24T14:53:42.955Z,49.80
2019-03-24T14:56:13.322Z,49.00
2019-03-24T14:58:43.943Z,48.90
2019-03-24T15:01:14.296Z,48.70
2019-03-24T15:03:44.576Z,50.70
2019-03-24T15:06:14.855Z,50.40
2019-03-24T15:08:45.279Z,52.70
2019-03-24T15:11:15.716Z,50.60
2019-03-24T15:13:45.996Z,51.50
2019-03-24T15:16:16.626Z,52.00
2019-03-24T15:18:46.931Z,50.60
2019-03-24T15:21:22.498Z,50.80
2019-03-24T15:23:53.085Z,52.40
2019-03-24T15:26:23.431Z,53.60
2019-03-24T15:28:53.760Z,50.30
2019-03-24T15:31:24.172Z,50.70
2019-03-24T15:33:54.758Z,50.50
2019-03-24T15:36:25.355Z,51.10
2019-03-24T15:38:55.723Z,51.70
2019-03-24T15:41:26.085Z,52.90
2019-03-24T15:43:56.734Z,54.10
2019-03-24T15:46:27.003Z,55.20
2019-03-24T15:48:57.284Z,56.70
2019-03-24T15:51:27.647Z,58.30
2019-03-24T15:53:57.978Z,58.60
2019-03-24T15:56:28.256Z,58.30
2019-03-24T15:58:58.525Z,58.60
2019-03-24T16:01:29.095Z,58.90
2019-03-24T16:03:59.640Z,59.20
2019-03-24T16:06:30.093Z,59.60
2019-03-24T16:09:00.479Z,60.80
2019-03-24T16:11:30.941Z,60.40
2019-03-24T16:14:01.296Z,60.30
2019-03-24T16:16:31.865Z,60.60
2019-03-24T16:19:02.231Z,61.50
2019-03-24T16:21:32.586Z,62.00
2019-03-24T16:24:02.902Z,63.10
2019-03-24T16:26:33.210Z,64.30
2019-03-24T16:29:03.557Z,64.30
2019-03-24T16:31:34.010Z,64.60
2019-03-24T16:34:06.773Z,65.50
2019-03-24T16:36:38.181Z,65.80
2019-03-24T16:39:08.654Z,67.40
2019-03-24T16:41:39.004Z,68.80
2019-03-24T16:44:09.359Z,68.20
2019-03-24T16:46:39.803Z,69.10
2019-03-24T16:49:10.093Z,70.30
2019-03-24T16:51:41.675Z,71.20
2019-03-24T16:54:12.331Z,72.30
2019-03-24T16:56:42.692Z,74.30
2019-03-24T16:59:15.071Z,76.00
2019-03-24T17:01:45.517Z,75.70
2019-03-24T17:04:16.075Z,76.60
2019-03-24T17:06:46.788Z,78.70
2019-03-24T17:09:17.147Z,80.20
2019-03-24T17:11:47.454Z,81.20
2019-03-24T17:14:18.409Z,84.00
2019-03-24T17:16:48.749Z,84.90
2019-03-24T17:19:19.493Z,86.40
2019-03-24T17:21:50.460Z,88.90
2019-03-24T17:24:20.752Z,89.60
2019-03-24T17:26:51.376Z,90.20
2019-03-24T17:29:21.661Z,91.20
2019-03-24T17:31:52.019Z,92.20
2019-03-24T17:34:22.391Z,93.20
2019-03-24T17:36:52.836Z,94.10
2019-03-24T17:39:23.568Z,95.40
2019-03-24T17:41:53.950Z,96.50
2019-03-24T17:44:25.438Z,97.70
2019-03-24T17:46:55.875Z,99.30
2019-03-24T17:49:26.317Z,99.90
2019-03-24T17:52:00.697Z,99.90
2019-03-24T17:54:28.572Z,99.90
2019-03-24T17:56:59.005Z,99.90
2019-03-24T17:59:29.531Z,99.90
2019-03-24T18:02:00.167Z,99.90
2019-03-24T18:04:31.521Z,99.90
2019-03-24T18:07:01.836Z,99.90
2019-03-24T18:09:32.215Z,99.90
2019-03-24T18:12:02.568Z,99.90
2019-03-24T18:14:34.656Z,99.90
2019-03-24T18:17:05.512Z,99.90
2019-03-24T18:19:37.063Z,99.90
2019-03-24T18:22:11.869Z,99.90
2019-03-24T18:24:39.995Z,99.90
2019-03-24T18:27:11.384Z,99.90
2019-03-24T18:29:41.792Z,99.90
2019-03-24T18:32:12.264Z,99.90
2019-03-24T18:34:42.772Z,99.90
2019-03-24T18:37:13.275Z,99.90
2019-03-24T18:39:43.728Z,99.90
2019-03-24T18:42:14.203Z,99.90
2019-03-24T18:44:44.728Z,99.90
2019-03-24T18:47:15.184Z,99.90
2019-03-24T18:49:45.610Z,99.90
2019-03-24T18:52:22.944Z,99.90
2019-03-24T18:54:51.625Z,99.90
2019-03-24T18:57:22.210Z,99.90
2019-03-24T18:59:52.558Z,99.90
2019-03-24T19:02:22.969Z,99.90
2019-03-24T19:04:53.640Z,99.90
2019-03-24T19:07:24.021Z,99.90
2019-03-24T19:09:54.430Z,99.90
2019-03-24T19:12:24.984Z,99.90
2019-03-24T19:14:55.583Z,99.90
2019-03-24T19:17:26.144Z,99.90
2019-03-24T19:19:56.495Z,99.90
2019-03-24T19:22:33.582Z,99.90
2019-03-24T19:24:59.023Z,99.90
2019-03-24T19:27:29.405Z,99.90
2019-03-24T19:29:59.708Z,99.90
2019-03-24T19:32:30.357Z,99.90
2019-03-24T19:35:00.909Z,99.90
2019-03-24T19:37:33.251Z,99.90
2019-03-24T19:40:04.116Z,99.90
2019-03-24T19:42:34.600Z,99.90
2019-03-24T19:45:06.620Z,99.90
2019-03-24T19:47:37.215Z,99.90
2019-03-24T19:50:07.687Z,99.90
2019-03-24T19:52:44.701Z,99.90
2019-03-24T19:55:10.310Z,99.90
2019-03-24T19:57:40.827Z,99.90
2019-03-24T20:00:12.831Z,99.90
2019-03-24T20:02:43.364Z,99.90
2019-03-24T20:05:14.202Z,99.90
2019-03-24T20:07:48.055Z,99.90
2019-03-24T20:10:17.771Z,99.90
2019-03-24T20:12:48.296Z,99.90
2019-03-24T20:15:18.813Z,99.90
2019-03-24T20:17:49.213Z,99.90
2019-03-24T20:20:19.814Z,99.90
2019-03-24T20:23:27.276Z,99.90
2019-03-24T20:26:13.309Z,99.90
2019-03-24T20:28:43.748Z,99.90
2019-03-24T20:31:14.859Z,99.90
2019-03-24T20:33:45.212Z,99.90
2019-03-24T20:36:15.673Z,99.90
2019-03-24T20:38:46.264Z,99.90
2019-03-24T20:41:16.678Z,99.90
2019-03-24T20:43:48.538Z,99.90
2019-03-24T20:46:19.027Z,99.90
2019-03-24T20:48:49.639Z,99.90
2019-03-24T20:51:21.907Z,99.90
2019-03-24T20:53:52.643Z,99.90
2019-03-24T20:56:23.416Z,99.90
2019-03-24T20:58:54.038Z,99.90
2019-03-24T21:01:24.572Z,99.90
2019-03-24T21:03:55.023Z,99.90
2019-03-24T21:06:25.475Z,99.90
2019-03-24T21:08:55.889Z,99.90
2019-03-24T21:11:26.260Z,99.90
2019-03-24T21:13:56.725Z,99.90
2019-03-24T21:16:27.245Z,99.90
2019-03-24T21:18:57.652Z,99.90
2019-03-24T21:21:28.202Z,99.90
2019-03-24T21:23:58.660Z,99.90
2019-03-24T21:26:29.098Z,99.90
2019-03-24T21:28:59.449Z,99.90
2019-03-24T21:31:29.798Z,99.90
2019-03-24T21:34:00.394Z,99.90
2019-03-24T21:36:30.752Z,99.90
2019-03-24T21:39:01.357Z,99.90
2019-03-24T21:41:33.008Z,99.90
2019-03-24T21:44:03.516Z,99.90
2019-03-24T21:46:33.943Z,99.90
2019-03-24T21:49:04.482Z,99.90
2019-03-24T21:51:34.834Z,99.90
2019-03-24T21:54:05.603Z,99.90
2019-03-24T21:56:36.017Z,99.90
2019-03-24T21:59:06.376Z,99.90
2019-03-24T22:01:36.677Z,99.90
2019-03-24T22:04:07.160Z,99.90
2019-03-24T22:06:37.607Z,99.90
2019-03-24T22:09:08.952Z,99.90
2019-03-24T22:11:39.348Z,99.90
2019-03-24T22:14:09.974Z,99.90
2019-03-24T22:16:40.383Z,99.90
2019-03-24T22:19:10.916Z,99.90
2019-03-24T22:21:41.324Z,99.90
2019-03-24T22:24:11.683Z,99.90
2019-03-24T22:26:41.980Z,99.90
2019-03-24T22:29:12.336Z,99.90
2019-03-24T22:31:42.692Z,99.90
2019-03-24T22:34:13.039Z,99.90
2019-03-24T22:36:43.494Z,99.90
2019-03-24T22:39:14.008Z,99.90
2019-03-24T22:41:44.280Z,99.90
2019-03-24T22:44:14.553Z,99.90
2019-03-24T22:46:44.822Z,99.90
2019-03-24T22:49:15.079Z,99.90
2019-03-24T22:51:45.427Z,99.90
2019-03-24T22:54:15.897Z,99.90
2019-03-24T22:56:46.579Z,99.90
2019-03-24T22:59:17.520Z,99.90
2019-03-24T23:01:47.859Z,99.90
2019-03-24T23:04:18.216Z,99.90
2019-03-24T23:06:48.562Z,99.90
2019-03-24T23:09:18.910Z,99.90
2019-03-24T23:11:49.206Z,99.90
2019-03-24T23:14:19.755Z,99.90
2019-03-24T23:16:50.024Z,99.90
2019-03-24T23:19:20.304Z,99.90
2019-03-24T23:21:50.824Z,99.90
2019-03-24T23:24:21.108Z,99.90
2019-03-24T23:26:51.456Z,99.90
2019-03-24T23:29:21.873Z,99.90
2019-03-24T23:31:52.147Z,99.90
2019-03-24T23:34:22.424Z,99.90
2019-03-24T23:36:52.844Z,99.90
2019-03-24T23:39:23.449Z,99.90
2019-03-24T23:41:53.750Z,99.90
2019-03-24T23:44:24.109Z,99.90
2019-03-24T23:46:54.375Z,99.90
2019-03-24T23:49:24.985Z,99.90
2019-03-24T23:51:55.244Z,99.90
2019-03-24T23:54:27.364Z,99.90
2019-03-24T23:56:57.550Z,99.90
2019-03-24T23:59:27.817Z,99.90
